Time;durP1;ratioP1;P1;durP2;ratioP2;P2;SDS_P1;SDS_P2;PMS_P1;PMS_P2;Temp;Humidity;BMP_temperature;BMP_pressure;BME280_temperature;BME280_humidity;BME280_pressure;Samples;Min_cycle;Max_cycle;Signal;HPM_P1;HPM_P2
2023/06/03 00:02:09;;;;;;;9.05;4.10;;;;;;;15.92;49.48;96671.41;4974477;28;20050;-73
2023/06/03 00:04:41;;;;;;;8.48;3.50;;;;;;;15.88;49.57;96663.16;4974600;28;20051;-76
2023/06/03 00:07:09;;;;;;;7.43;4.10;;;;;;;15.87;49.69;96669.41;4974032;28;20510;-73
2023/06/03 00:09:37;;;;;;;7.00;3.63;;;;;;;15.86;49.71;96671.25;4974350;28;20098;-76
2023/06/03 00:12:05;;;;;;;7.20;3.80;;;;;;;15.83;49.42;96668.22;4974426;28;20051;-73
2023/06/03 00:14:34;;;;;;;9.32;3.42;;;;;;;15.82;49.89;96672.69;4973875;28;20126;-73
2023/06/03 00:17:02;;;;;;;11.00;4.22;;;;;;;15.80;49.85;96669.47;4974399;28;20070;-73
2023/06/03 00:19:29;;;;;;;7.35;3.90;;;;;;;15.79;49.94;96673.13;4981543;28;20098;-72
2023/06/03 00:22:00;;;;;;;6.78;3.67;;;;;;;15.76;50.00;96670.09;4992936;28;20043;-74
2023/06/03 00:24:27;;;;;;;7.13;3.55;;;;;;;15.77;50.05;96677.00;4996201;28;20054;-75
2023/06/03 00:26:55;;;;;;;8.13;3.58;;;;;;;15.80;50.18;96677.34;4990486;28;20051;-75
2023/06/03 00:29:23;;;;;;;7.68;3.58;;;;;;;15.85;50.68;96676.72;4977053;28;20050;-75
2023/06/03 00:31:52;;;;;;;7.05;3.83;;;;;;;15.89;50.17;96675.25;4975088;28;20051;-75
2023/06/03 00:34:20;;;;;;;7.03;3.50;;;;;;;15.86;50.20;96678.34;4975197;28;20499;-75
2023/06/03 00:36:47;;;;;;;8.88;2.97;;;;;;;15.83;50.68;96674.31;4974136;28;20046;-72
2023/06/03 00:39:15;;;;;;;9.93;3.92;;;;;;;15.84;50.37;96675.91;4973159;28;20051;-75
2023/06/03 00:41:42;;;;;;;6.15;3.70;;;;;;;15.86;50.90;96679.13;4973371;28;20078;-75
2023/06/03 00:44:10;;;;;;;11.20;4.20;;;;;;;15.85;50.57;96677.53;4974033;28;20078;-75
2023/06/03 00:46:38;;;;;;;5.75;4.03;;;;;;;15.81;50.83;96678.19;4974599;28;20489;-75
2023/06/03 00:49:07;;;;;;;9.68;4.40;;;;;;;15.74;51.02;96675.59;4986763;28;20078;-75
2023/06/03 00:51:35;;;;;;;7.22;4.00;;;;;;;15.65;51.12;96672.38;4985580;28;20054;-75
2023/06/03 00:54:03;;;;;;;8.63;4.00;;;;;;;15.57;51.17;96680.50;4975005;28;20058;-75
2023/06/03 00:56:38;;;;;;;11.57;3.78;;;;;;;15.50;51.75;96676.28;4973740;28;20592;-75
2023/06/03 00:59:06;;;;;;;11.85;4.57;;;;;;;15.41;51.65;96671.31;4973667;28;20502;-75
2023/06/03 01:01:35;;;;;;;10.45;4.20;;;;;;;15.34;51.67;96669.72;4973467;28;20051;-75
2023/06/03 01:04:05;;;;;;;12.52;4.43;;;;;;;15.24;52.02;96665.72;4973384;28;20055;-75
2023/06/03 01:06:45;;;;;;;6.50;3.95;;;;;;;15.17;52.52;96675.44;4973612;28;20105;-75
2023/06/03 01:09:22;;;;;;;8.23;3.95;;;;;;;15.12;52.40;96670.00;4973762;28;20061;-75
2023/06/03 01:11:58;;;;;;;11.05;3.65;;;;;;;15.07;52.68;96671.66;4973831;28;20051;-75
2023/06/03 01:14:33;;;;;;;10.10;4.50;;;;;;;14.99;52.83;96673.50;4973454;28;20054;-75
2023/06/03 01:17:09;;;;;;;7.28;3.45;;;;;;;14.93;52.85;96660.38;4973367;28;20051;-75
2023/06/03 01:19:48;;;;;;;12.10;4.50;;;;;;;14.86;53.32;96667.47;4973554;28;20051;-75
2023/06/03 01:22:18;;;;;;;8.32;3.80;;;;;;;14.82;53.33;96662.66;4973427;28;20089;-75
2023/06/03 01:24:50;;;;;;;7.97;4.28;;;;;;;14.79;53.40;96657.78;4973014;28;20050;-75
2023/06/03 01:27:18;;;;;;;8.13;4.47;;;;;;;14.75;53.25;96651.34;4973294;28;20105;-75
2023/06/03 01:29:46;;;;;;;8.07;4.05;;;;;;;14.69;53.41;96651.38;4973272;28;20054;-75
2023/06/03 01:32:16;;;;;;;9.15;4.80;;;;;;;14.61;53.65;96655.03;4973331;28;20054;-74
2023/06/03 01:34:44;;;;;;;13.20;4.93;;;;;;;14.54;53.88;96649.78;4972995;28;20150;-75
2023/06/03 01:37:13;;;;;;;8.52;3.95;;;;;;;14.51;53.99;96649.38;4972872;28;20546;-75
2023/06/03 01:39:42;;;;;;;9.57;5.38;;;;;;;14.48;54.39;96647.16;4973068;28;20101;-75
2023/06/03 01:42:12;;;;;;;7.60;4.60;;;;;;;14.43;54.58;96653.81;4973230;28;20074;-75
2023/06/03 01:44:40;;;;;;;5.60;4.05;;;;;;;14.40;54.31;96648.97;4973333;28;20074;-75
2023/06/03 01:47:08;;;;;;;8.75;4.03;;;;;;;14.40;54.00;96653.41;4972740;28;20057;-75
2023/06/03 01:49:36;;;;;;;10.50;4.10;;;;;;;14.38;54.07;96642.31;4973002;28;20427;-75
2023/06/03 01:52:04;;;;;;;8.40;4.28;;;;;;;14.36;54.50;96653.00;4972936;28;20526;-75
2023/06/03 01:54:31;;;;;;;8.65;4.57;;;;;;;14.35;54.47;96650.59;4972785;28;20503;-75
2023/06/03 01:57:00;;;;;;;10.75;4.97;;;;;;;14.33;54.34;96653.44;4972575;28;20090;-75
2023/06/03 01:59:29;;;;;;;8.95;3.92;;;;;;;14.33;54.55;96648.19;4972823;28;20054;-75
2023/06/03 02:01:59;;;;;;;8.10;4.40;;;;;;;14.32;54.49;96645.75;4975541;28;20042;-75
2023/06/03 02:04:28;;;;;;;8.95;4.18;;;;;;;14.33;54.29;96648.19;4976270;28;20058;-75
2023/06/03 02:06:59;;;;;;;8.75;3.97;;;;;;;14.33;53.88;96648.19;4976446;28;20051;-75
2023/06/03 02:09:28;;;;;;;9.68;4.32;;;;;;;14.32;54.09;96659.69;4976708;28;20109;-75
2023/06/03 02:11:56;;;;;;;7.63;3.80;;;;;;;14.32;53.96;96651.00;4976652;28;20102;-75
2023/06/03 02:14:25;;;;;;;10.75;4.40;;;;;;;14.30;54.19;96640.72;4976680;28;20109;-75
2023/06/03 02:16:55;;;;;;;8.65;4.20;;;;;;;14.30;54.39;96642.53;4985454;28;20058;-75
2023/06/03 02:19:25;;;;;;;9.70;3.95;;;;;;;14.30;54.39;96653.84;4996239;28;20511;-75
2023/06/03 02:21:56;;;;;;;10.20;3.90;;;;;;;14.29;54.47;96641.72;4995738;28;20094;-76
2023/06/03 02:24:24;;;;;;;10.55;4.45;;;;;;;14.25;54.37;96645.75;4994616;28;20110;-75
2023/06/03 02:26:52;;;;;;;8.95;3.90;;;;;;;14.21;54.48;96644.56;4994638;28;20062;-75
2023/06/03 02:29:22;;;;;;;8.02;4.28;;;;;;;14.17;54.79;96648.63;4994690;28;20151;-75
2023/06/03 02:31:50;;;;;;;12.07;4.53;;;;;;;14.15;54.91;96650.63;4988127;28;20047;-75
2023/06/03 02:34:19;;;;;;;10.63;4.80;;;;;;;14.11;54.95;96650.22;4977177;28;20054;-75
2023/06/03 02:36:47;;;;;;;10.85;4.70;;;;;;;14.07;54.77;96643.75;4976452;28;20047;-75
2023/06/03 02:39:16;;;;;;;7.85;4.32;;;;;;;14.05;55.02;96640.53;4976324;28;20051;-75
2023/06/03 02:41:46;;;;;;;10.18;4.82;;;;;;;14.02;55.34;96646.19;4975880;28;20046;-75
2023/06/03 02:44:14;;;;;;;7.10;3.80;;;;;;;13.96;55.63;96653.03;4975756;28;20086;-75
2023/06/03 02:46:42;;;;;;;7.07;4.18;;;;;;;13.93;55.39;96647.41;4975636;28;20046;-75
2023/06/03 02:49:10;;;;;;;7.28;3.88;;;;;;;13.89;55.74;96652.25;4975926;28;20054;-75
2023/06/03 02:51:40;;;;;;;7.13;4.55;;;;;;;13.86;55.87;96646.56;4975925;28;20142;-75
2023/06/03 02:54:08;;;;;;;6.75;4.15;;;;;;;13.82;55.80;96646.19;4976130;28;20053;-75
2023/06/03 02:56:35;;;;;;;9.20;4.68;;;;;;;13.79;55.94;96643.94;4975217;28;20046;-75
2023/06/03 02:59:03;;;;;;;6.82;4.38;;;;;;;13.80;55.78;96645.59;4975655;28;20121;-75
2023/06/03 03:01:31;;;;;;;10.23;4.55;;;;;;;13.75;55.81;96646.19;4976037;28;20078;-75
2023/06/03 03:03:59;;;;;;;11.40;4.80;;;;;;;13.74;56.05;96646.38;4975660;28;20057;-75
2023/06/03 03:06:26;;;;;;;9.70;4.28;;;;;;;13.68;56.29;96644.56;4975283;28;20054;-75
2023/06/03 03:08:56;;;;;;;8.60;4.32;;;;;;;13.65;56.35;96652.81;4975164;28;20105;-75
2023/06/03 03:11:24;;;;;;;7.10;4.40;;;;;;;13.66;56.54;96650.00;4975211;28;20046;-75
2023/06/03 03:13:52;;;;;;;7.50;4.38;;;;;;;13.65;56.37;96642.34;4975561;28;20130;-75
2023/06/03 03:16:19;;;;;;;8.88;4.30;;;;;;;13.63;56.58;96654.84;4975223;28;20093;-75
2023/06/03 03:18:47;;;;;;;10.90;4.80;;;;;;;13.63;56.59;96652.22;4975327;28;20141;-75
2023/06/03 03:21:15;;;;;;;9.27;4.35;;;;;;;13.59;56.50;96649.97;4975171;28;20043;-75
2023/06/03 03:23:42;;;;;;;10.88;4.47;;;;;;;13.58;56.75;96656.25;4975284;28;20065;-75
2023/06/03 03:26:13;;;;;;;5.85;4.13;;;;;;;13.57;56.92;96656.44;4974976;28;20574;-75
2023/06/03 03:28:41;;;;;;;11.60;3.80;;;;;;;13.59;56.93;96657.84;4975164;28;20135;-75
2023/06/03 03:31:10;;;;;;;7.93;4.35;;;;;;;13.62;56.89;96661.88;4975085;28;20047;-75
2023/06/03 03:33:37;;;;;;;12.05;4.22;;;;;;;13.59;57.07;96662.28;4974952;28;20515;-75
2023/06/03 03:36:11;;;;;;;8.77;4.60;;;;;;;13.55;57.06;96656.63;4974742;28;20558;-75
2023/06/03 03:38:39;;;;;;;10.82;4.70;;;;;;;13.53;56.88;96668.31;4975125;28;20054;-75
2023/06/03 03:41:06;;;;;;;9.93;5.53;;;;;;;13.52;57.04;96670.13;4975158;28;20083;-75
2023/06/03 03:43:35;;;;;;;12.00;4.45;;;;;;;13.54;57.17;96667.31;4974948;28;20074;-75
2023/06/03 03:46:04;;;;;;;13.05;4.85;;;;;;;13.53;57.03;96663.88;4984518;28;20502;-75
2023/06/03 03:48:33;;;;;;;11.52;4.97;;;;;;;13.54;56.83;96662.09;4989025;28;20050;-78
2023/06/03 03:51:01;;;;;;;10.52;5.05;;;;;;;13.53;57.24;96666.50;4978083;28;20051;-77
2023/06/03 03:53:32;;;;;;;8.93;4.30;;;;;;;13.56;57.28;96668.72;4973680;28;20054;-78
2023/06/03 03:56:00;;;;;;;9.20;4.35;;;;;;;13.58;57.07;96674.59;4974747;28;20412;-77
2023/06/03 03:58:30;;;;;;;10.05;4.75;;;;;;;13.62;56.96;96676.81;4974451;28;20055;-77
2023/06/03 04:01:00;;;;;;;10.38;4.95;;;;;;;13.63;57.24;96670.56;4973623;28;20046;-77
2023/06/03 04:03:35;;;;;;;7.45;4.15;;;;;;;13.62;56.97;96680.22;4974220;28;20495;-77
2023/06/03 04:06:04;;;;;;;10.10;4.75;;;;;;;13.61;57.13;96681.25;4974307;28;20078;-76
2023/06/03 04:08:44;;;;;;;9.93;4.88;;;;;;;13.57;57.65;96680.81;4972713;28;20090;-77
2023/06/03 04:11:20;;;;;;;6.57;4.53;;;;;;;13.55;57.95;96682.03;4970893;28;20043;-78
2023/06/03 04:13:49;;;;;;;11.32;4.53;;;;;;;13.55;57.05;96682.03;4974297;28;20051;-77
2023/06/03 04:16:54;;;;;;;9.68;4.30;;;;;;;13.56;57.79;96687.06;4973326;28;20051;-78
2023/06/03 04:19:27;;;;;;;9.25;5.18;;;;;;;13.54;57.56;96691.72;4973750;28;20117;-76
2023/06/03 04:21:56;;;;;;;8.55;4.72;;;;;;;13.55;57.52;96687.28;4973812;28;20085;-76
2023/06/03 04:24:24;;;;;;;8.85;4.60;;;;;;;13.57;57.59;96690.50;4973170;28;20082;-76
2023/06/03 04:26:51;;;;;;;13.95;4.43;;;;;;;13.57;57.41;96686.06;4973595;28;20125;-76
2023/06/03 04:29:19;;;;;;;8.63;4.40;;;;;;;13.58;57.49;96686.88;4973986;28;20110;-77
2023/06/03 04:31:48;;;;;;;8.68;4.13;;;;;;;13.58;57.60;96690.31;4973436;28;20074;-77
2023/06/03 04:34:15;;;;;;;13.90;5.20;;;;;;;13.62;57.59;96689.91;4973628;28;20051;-76
2023/06/03 04:36:43;;;;;;;12.00;5.65;;;;;;;13.65;57.63;96692.16;4973023;28;20054;-76
2023/06/03 04:39:11;;;;;;;10.75;4.47;;;;;;;13.67;57.50;96696.19;4973573;28;20055;-76
2023/06/03 04:41:39;;;;;;;8.77;4.57;;;;;;;13.76;58.13;96694.19;4973067;28;20051;-76
2023/06/03 04:44:08;;;;;;;10.27;4.80;;;;;;;13.91;57.86;96694.81;4973527;28;20109;-76
2023/06/03 04:46:36;;;;;;;6.90;4.43;;;;;;;14.08;57.32;96691.78;4973132;28;20058;-78
2023/06/03 04:49:07;;;;;;;8.93;4.68;;;;;;;14.20;57.38;96695.41;4973386;28;20399;-78
2023/06/03 04:51:35;;;;;;;7.35;4.45;;;;;;;14.31;56.26;96686.13;4970253;28;20101;-79
2023/06/03 04:54:04;;;;;;;8.90;4.65;;;;;;;14.36;56.45;96687.13;4974473;28;20053;-79
2023/06/03 04:56:31;;;;;;;13.48;5.18;;;;;;;14.40;56.41;96685.72;4973210;28;20054;-76
2023/06/03 04:59:00;;;;;;;7.78;4.30;;;;;;;14.46;56.23;96688.53;4973702;28;20054;-76
2023/06/03 05:01:31;;;;;;;9.13;4.72;;;;;;;14.52;56.37;96692.97;4995606;23;20054;-83
2023/06/03 05:03:59;;;;;;;11.35;4.57;;;;;;;14.58;55.91;96689.56;4980340;28;20074;-84
2023/06/03 05:06:28;;;;;;;10.30;4.18;;;;;;;14.66;56.02;96684.09;4981116;28;20657;-83
2023/06/03 05:08:56;;;;;;;7.25;4.13;;;;;;;14.73;55.84;96687.50;4978427;28;20050;-83
2023/06/03 05:11:24;;;;;;;10.48;4.43;;;;;;;14.79;55.51;96686.69;4978643;28;20049;-83
2023/06/03 05:13:52;;;;;;;7.53;3.65;;;;;;;14.81;56.27;96682.03;4975760;28;20109;-83
2023/06/03 05:16:21;;;;;;;7.82;4.00;;;;;;;14.88;55.65;96692.53;4974051;28;20042;-84
2023/06/03 05:18:51;;;;;;;6.15;3.60;;;;;;;14.89;55.64;96688.91;4977094;28;20070;-84
2023/06/03 05:21:19;;;;;;;14.57;4.63;;;;;;;14.90;55.28;96689.69;4974017;28;20486;-82
2023/06/03 05:23:48;;;;;;;8.15;4.35;;;;;;;14.88;55.34;96696.97;4974249;28;20051;-83
2023/06/03 05:26:16;;;;;;;9.25;4.07;;;;;;;14.87;55.29;96690.09;4973974;28;20051;-83
2023/06/03 05:28:44;;;;;;;14.55;5.05;;;;;;;14.84;55.18;96686.88;4986464;28;20046;-82
2023/06/03 05:31:11;;;;;;;8.18;4.32;;;;;;;14.82;55.61;96678.41;4986034;28;20527;-83
2023/06/03 05:33:40;;;;;;;9.15;4.40;;;;;;;14.80;55.87;96690.94;4977300;28;20102;-83
2023/06/03 05:36:08;;;;;;;8.52;4.07;;;;;;;14.81;55.64;96689.91;4980212;28;20121;-84
2023/06/03 05:38:36;;;;;;;6.72;3.80;;;;;;;14.81;55.36;96689.13;4959327;29;20096;-81
2023/06/03 05:41:06;;;;;;;11.20;4.60;;;;;;;14.82;55.36;96688.09;4958421;29;20392;-82
2023/06/03 05:43:34;;;;;;;5.35;3.92;;;;;;;14.85;55.35;96692.94;4958334;29;20048;-81
2023/06/03 05:46:02;;;;;;;8.38;4.57;;;;;;;14.89;55.57;96690.69;4958057;28;20055;-82
2023/06/03 05:48:30;;;;;;;9.20;4.22;;;;;;;14.90;55.63;96687.06;4958405;29;20047;-82
2023/06/03 05:50:57;;;;;;;10.25;4.53;;;;;;;14.95;55.34;96687.25;4970455;28;20081;-83
2023/06/03 05:53:26;;;;;;;8.43;4.50;;;;;;;14.98;55.33;96692.09;4976994;28;20043;-76
2023/06/03 05:55:54;;;;;;;8.18;4.25;;;;;;;15.01;55.02;96696.94;4981421;28;20138;-76
2023/06/03 05:58:23;;;;;;;7.43;3.90;;;;;;;15.06;55.27;96694.47;4988553;28;20053;-75
2023/06/03 06:00:52;;;;;;;4.53;3.55;;;;;;;15.19;54.95;96693.63;4989444;28;20046;-75
2023/06/03 06:03:19;;;;;;;10.57;4.32;;;;;;;15.29;54.15;96688.75;4973754;28;20105;-76
2023/06/03 06:05:47;;;;;;;7.20;3.53;;;;;;;15.35;54.29;96687.06;4975267;28;20097;-76
2023/06/03 06:08:15;;;;;;;8.52;3.83;;;;;;;15.43;53.80;96685.00;4975359;28;20082;-75
2023/06/03 06:10:42;;;;;;;9.48;3.92;;;;;;;15.50;53.67;96686.81;4975333;28;20126;-76
2023/06/03 06:13:10;;;;;;;4.80;3.60;;;;;;;15.58;53.49;96671.59;4974714;28;20137;-75
2023/06/03 06:15:39;;;;;;;7.15;4.28;;;;;;;15.70;53.32;96679.63;4975197;28;20058;-75
2023/06/03 06:18:07;;;;;;;6.85;3.35;;;;;;;15.81;53.16;96691.34;4975655;28;20195;-75
2023/06/03 06:20:34;;;;;;;9.98;4.30;;;;;;;15.88;52.62;96691.28;4975978;28;20515;-75
2023/06/03 06:23:02;;;;;;;8.68;4.20;;;;;;;15.95;52.83;96690.19;4975364;28;20565;-75
2023/06/03 06:25:30;;;;;;;10.75;4.00;;;;;;;16.03;52.48;96689.94;4975272;28;20051;-75
2023/06/03 06:27:57;;;;;;;6.75;4.22;;;;;;;16.11;52.21;96685.44;4975431;28;20467;-76
2023/06/03 06:30:25;;;;;;;10.30;4.35;;;;;;;16.16;52.02;96688.22;4975502;28;20552;-76
2023/06/03 06:32:54;;;;;;;7.80;4.50;;;;;;;16.20;51.72;96690.22;4975526;28;20051;-75
2023/06/03 06:35:23;;;;;;;7.63;4.10;;;;;;;16.24;51.42;96690.59;4974977;28;20145;-75
2023/06/03 06:37:50;;;;;;;6.75;4.10;;;;;;;16.28;51.40;96689.94;4975429;28;20050;-76
2023/06/03 06:40:19;;;;;;;9.65;3.80;;;;;;;16.34;51.78;96679.59;4975417;28;20081;-75
2023/06/03 06:42:48;;;;;;;12.77;4.50;;;;;;;16.41;51.65;96691.66;4975256;28;20125;-75
2023/06/03 06:45:17;;;;;;;8.32;4.38;;;;;;;16.52;51.49;96689.34;4975780;28;20051;-76
2023/06/03 06:47:45;;;;;;;8.13;4.15;;;;;;;16.60;51.66;96695.13;4974981;28;20051;-76
2023/06/03 06:50:29;;;;;;;6.20;4.30;;;;;;;16.67;51.49;96692.44;4975278;28;20054;-76
2023/06/03 06:52:56;;;;;;;4.93;4.13;;;;;;;16.75;50.76;96686.06;4975338;28;20090;-76
2023/06/03 06:55:39;;;;;;;9.30;4.55;;;;;;;16.79;50.80;96695.16;4974509;28;20098;-76
2023/06/03 06:58:08;;;;;;;6.15;4.30;;;;;;;16.79;50.96;96682.81;4974772;28;20054;-75
2023/06/03 07:00:36;;;;;;;12.07;5.18;;;;;;;16.84;50.61;96690.88;4974736;28;20050;-76
2023/06/03 07:03:06;;;;;;;8.77;4.57;;;;;;;16.87;50.89;96679.88;4974867;28;20054;-76
2023/06/03 07:05:35;;;;;;;8.30;4.00;;;;;;;16.95;50.80;96678.81;4974509;28;20051;-76
2023/06/03 07:08:03;;;;;;;6.88;4.32;;;;;;;17.02;50.72;96690.06;4974494;28;20058;-75
2023/06/03 07:10:31;;;;;;;8.70;4.65;;;;;;;17.05;50.58;96687.00;4974513;28;20054;-75
2023/06/03 07:12:59;;;;;;;9.85;4.80;;;;;;;17.12;50.56;96688.75;4974495;28;20046;-76
2023/06/03 07:15:26;;;;;;;8.02;4.68;;;;;;;17.19;50.56;96687.66;4974474;28;20575;-76
2023/06/03 07:17:56;;;;;;;5.18;4.38;;;;;;;17.27;50.20;96692.63;4974444;28;20055;-76
2023/06/03 07:20:30;;;;;;;5.80;4.28;;;;;;;17.35;50.08;96686.22;4974455;28;20057;-75
2023/06/03 07:23:00;;;;;;;6.55;3.70;;;;;;;17.48;50.42;96690.53;4974537;28;20055;-76
2023/06/03 07:25:36;;;;;;;12.25;5.03;;;;;;;17.59;49.95;96695.03;4974114;28;20153;-76
2023/06/03 07:28:05;;;;;;;7.20;4.22;;;;;;;17.66;49.71;96685.19;4974432;28;20137;-76
2023/06/03 07:30:36;;;;;;;7.13;4.10;;;;;;;17.70;49.58;96699.53;4974348;28;20046;-76
2023/06/03 07:33:05;;;;;;;6.55;4.30;;;;;;;17.74;49.76;96697.28;4974583;28;20109;-75
2023/06/03 07:35:34;;;;;;;13.02;5.22;;;;;;;17.82;49.64;96696.16;4973841;28;20101;-76
2023/06/03 07:38:04;;;;;;;7.57;4.35;;;;;;;17.87;49.70;96694.47;4974082;28;20148;-76
2023/06/03 07:40:40;;;;;;;7.90;5.00;;;;;;;17.93;49.17;96692.78;4974298;28;20078;-76
2023/06/03 07:43:08;;;;;;;6.40;3.75;;;;;;;17.97;49.64;96701.81;4973951;28;20483;-76
2023/06/03 07:45:36;;;;;;;7.35;4.40;;;;;;;18.07;49.56;96704.72;4974239;28;20105;-76
2023/06/03 07:48:06;;;;;;;9.82;4.75;;;;;;;18.12;49.04;96701.41;4973882;28;20074;-76
2023/06/03 07:50:33;;;;;;;10.20;4.10;;;;;;;18.18;49.33;96704.97;4974143;28;20058;-76
2023/06/03 07:53:02;;;;;;;10.23;4.78;;;;;;;18.26;49.45;96700.19;4973701;28;20054;-76
2023/06/03 07:55:40;;;;;;;7.03;4.80;;;;;;;18.35;49.05;96700.66;4973698;28;20055;-76
2023/06/03 07:58:10;;;;;;;8.45;4.80;;;;;;;18.43;49.02;96708.25;4973894;28;20129;-76
2023/06/03 08:00:43;;;;;;;6.72;4.22;;;;;;;18.50;48.77;96705.47;4973520;28;20577;-76
2023/06/03 08:03:14;;;;;;;8.82;5.30;;;;;;;18.57;48.67;96713.28;4973959;28;20082;-75
2023/06/03 08:05:42;;;;;;;11.95;5.38;;;;;;;18.61;48.60;96714.44;4973616;28;20055;-75
2023/06/03 08:08:12;;;;;;;9.52;4.75;;;;;;;18.66;48.73;96703.97;4973539;28;20051;-75
2023/06/03 08:10:45;;;;;;;6.57;4.15;;;;;;;18.78;48.83;96707.44;4973963;28;20058;-75
2023/06/03 08:13:13;;;;;;;6.25;4.20;;;;;;;18.92;48.50;96708.00;4973245;28;20077;-76
2023/06/03 08:15:41;;;;;;;8.73;4.85;;;;;;;19.04;48.50;96707.97;4973410;28;20078;-75
2023/06/03 08:18:10;;;;;;;9.43;4.82;;;;;;;19.15;47.79;96720.38;4973457;28;20051;-75
2023/06/03 08:20:38;;;;;;;8.10;4.72;;;;;;;19.18;47.57;96713.84;4973463;28;20089;-75
2023/06/03 08:23:05;;;;;;;8.95;5.07;;;;;;;19.20;47.75;96723.16;4973236;28;20474;-75
2023/06/03 08:25:33;;;;;;;10.27;4.63;;;;;;;19.23;47.99;96714.72;4973036;28;20097;-75
2023/06/03 08:28:02;;;;;;;9.20;4.72;;;;;;;19.31;47.96;96717.00;4973250;28;20561;-75
2023/06/03 08:30:29;;;;;;;10.63;5.18;;;;;;;19.46;47.97;96710.41;4973053;28;20055;-75
2023/06/03 08:32:57;;;;;;;9.90;4.50;;;;;;;19.59;47.66;96720.72;4973061;28;20093;-75
2023/06/03 08:35:25;;;;;;;9.32;4.38;;;;;;;19.73;47.74;96706.19;4972861;28;20514;-75
2023/06/03 08:37:53;;;;;;;7.45;4.53;;;;;;;19.88;47.64;96710.16;4972817;28;20498;-75
2023/06/03 08:40:25;;;;;;;9.90;4.35;;;;;;;20.04;46.85;96706.72;4972971;28;20471;-75
2023/06/03 08:43:01;;;;;;;9.98;7.28;;;;;;;20.16;46.34;96710.13;4973097;28;20466;-75
2023/06/03 08:45:37;;;;;;;11.40;4.90;;;;;;;20.26;46.14;96713.97;4972683;28;20546;-75
2023/06/03 08:48:07;;;;;;;9.30;5.30;;;;;;;20.37;46.24;96715.72;4973078;28;20054;-75
2023/06/03 08:50:36;;;;;;;9.50;4.93;;;;;;;20.47;45.96;96702.63;4972819;28;20141;-75
2023/06/03 08:53:08;;;;;;;7.85;4.70;;;;;;;20.58;45.54;96706.28;4973102;28;20438;-75
2023/06/03 08:55:37;;;;;;;9.70;4.60;;;;;;;20.65;45.29;96708.75;4973289;28;20058;-75
2023/06/03 08:58:13;;;;;;;7.80;4.25;;;;;;;20.73;45.60;96708.34;4972790;28;20054;-75
2023/06/03 09:00:43;;;;;;;8.95;5.10;;;;;;;20.85;45.07;96701.09;4973207;28;20081;-75
2023/06/03 09:03:12;;;;;;;8.07;4.38;;;;;;;20.98;45.29;96706.03;4972672;28;20050;-76
2023/06/03 09:05:41;;;;;;;7.50;4.72;;;;;;;21.11;44.41;96709.38;4972601;28;20061;-75
2023/06/03 09:08:10;;;;;;;8.05;5.03;;;;;;;21.19;44.17;96706.31;4972597;28;20108;-75
2023/06/03 09:10:37;;;;;;;6.55;4.53;;;;;;;21.26;43.99;96716.72;4972422;28;20088;-76
2023/06/03 09:13:06;;;;;;;6.90;4.35;;;;;;;21.30;44.06;96708.03;4972712;28;20082;-76
2023/06/03 09:15:35;;;;;;;6.72;4.57;;;;;;;21.40;43.68;96708.13;4972650;28;20138;-76
2023/06/03 09:18:04;;;;;;;5.13;4.32;;;;;;;21.49;44.21;96715.69;4973177;28;20458;-75
2023/06/03 09:20:31;;;;;;;8.93;4.70;;;;;;;21.57;43.07;96710.75;4972738;28;20057;-76
2023/06/03 09:23:00;;;;;;;6.28;5.15;;;;;;;21.63;42.87;96711.59;4972461;28;20097;-76
2023/06/03 09:25:27;;;;;;;7.60;4.28;;;;;;;21.70;42.79;96712.19;4972247;28;20050;-76
2023/06/03 09:27:55;;;;;;;11.57;4.43;;;;;;;21.81;43.08;96711.25;4972294;28;20487;-76
2023/06/03 09:30:23;;;;;;;11.07;4.75;;;;;;;21.92;42.43;96712.16;4972512;28;20580;-75
2023/06/03 09:32:50;;;;;;;6.65;4.13;;;;;;;21.96;42.34;96707.94;4972680;28;20478;-76
2023/06/03 09:35:21;;;;;;;7.15;4.53;;;;;;;22.00;42.17;96702.94;4972141;28;20427;-76
2023/06/03 09:37:59;;;;;;;8.93;5.15;;;;;;;22.09;42.37;96704.06;4972921;28;20051;-76
2023/06/03 09:40:28;;;;;;;7.10;4.53;;;;;;;22.14;41.22;96712.06;4975661;28;20051;-77
2023/06/03 09:42:56;;;;;;;9.60;4.65;;;;;;;22.10;41.10;96708.31;4974853;28;20500;-76
2023/06/03 09:45:29;;;;;;;7.85;4.68;;;;;;;22.09;41.10;96709.38;4975453;28;20042;-76
2023/06/03 09:47:57;;;;;;;5.22;4.07;;;;;;;22.13;41.92;96707.84;4976443;28;20046;-76
2023/06/03 09:50:27;;;;;;;8.82;4.53;;;;;;;22.11;41.34;96712.59;4974294;28;20051;-76
2023/06/03 09:52:55;;;;;;;8.18;5.05;;;;;;;22.05;41.30;96704.84;4972302;28;20117;-76
2023/06/03 09:55:32;;;;;;;7.13;4.70;;;;;;;22.08;41.55;96712.28;4972220;28;20047;-76
2023/06/03 09:58:04;;;;;;;7.32;4.63;;;;;;;22.05;41.56;96710.16;4972602;28;20054;-76
2023/06/03 10:00:34;;;;;;;9.65;4.40;;;;;;;22.07;41.85;96700.88;4972226;28;20146;-76
2023/06/03 10:03:08;;;;;;;7.53;4.70;;;;;;;22.17;41.97;96705.44;4972485;28;20507;-76
2023/06/03 10:05:38;;;;;;;9.90;4.75;;;;;;;22.28;40.95;96709.03;4971522;28;20050;-76
2023/06/03 10:08:06;;;;;;;5.63;4.60;;;;;;;22.36;41.28;96697.94;4972248;28;20101;-76
2023/06/03 10:10:35;;;;;;;6.20;4.70;;;;;;;22.44;41.11;96708.09;4972152;28;20055;-76
2023/06/03 10:13:18;;;;;;;6.32;4.30;;;;;;;22.52;41.75;96696.19;4972037;28;20057;-76
2023/06/03 10:15:45;;;;;;;5.65;4.20;;;;;;;22.65;41.26;96694.94;4969527;28;20054;-76
2023/06/03 10:18:13;;;;;;;10.05;4.65;;;;;;;22.71;40.83;96701.91;4971777;28;20047;-76
2023/06/03 10:20:43;;;;;;;10.82;5.05;;;;;;;22.71;40.22;96693.91;4972397;28;20518;-75
2023/06/03 10:23:12;;;;;;;10.05;4.55;;;;;;;22.73;40.65;96702.44;4975197;28;20054;-76
2023/06/03 10:25:42;;;;;;;6.93;4.63;;;;;;;22.78;40.46;96702.47;4975378;28;20058;-76
2023/06/03 10:28:11;;;;;;;9.00;4.95;;;;;;;22.80;40.10;96687.84;4975405;28;20342;-76
2023/06/03 10:30:39;;;;;;;8.25;4.60;;;;;;;22.77;40.07;96699.00;4975496;28;20098;-76
2023/06/03 10:33:08;;;;;;;9.80;4.85;;;;;;;22.71;39.91;96694.72;4975715;28;20057;-76
2023/06/03 10:35:37;;;;;;;5.70;4.43;;;;;;;22.71;40.14;96694.72;4975195;28;20058;-76
2023/06/03 10:38:07;;;;;;;8.80;4.80;;;;;;;22.77;40.28;96693.69;4975421;28;20058;-76
2023/06/03 10:40:35;;;;;;;8.10;5.20;;;;;;;22.78;39.67;96683.84;4975501;28;20050;-76
2023/06/03 10:43:03;;;;;;;9.70;4.72;;;;;;;22.78;40.05;96694.47;4975062;28;20579;-76
2023/06/03 10:45:32;;;;;;;7.43;4.72;;;;;;;22.79;39.43;96694.22;4974968;28;20486;-76
2023/06/03 10:48:02;;;;;;;6.20;4.90;;;;;;;22.84;39.94;96682.81;4974862;28;20082;-76
2023/06/03 10:50:43;;;;;;;5.85;4.10;;;;;;;22.95;40.02;96689.00;4975015;28;20495;-76
2023/06/03 10:53:21;;;;;;;6.72;4.30;;;;;;;23.01;38.94;96688.00;4974874;28;20113;-76
2023/06/03 10:56:03;;;;;;;10.65;4.97;;;;;;;23.00;39.11;96692.53;4974776;28;20082;-76
2023/06/03 10:58:31;;;;;;;;;;;;;;;23.00;39.83;96681.88;4975517;28;20452;-76
2023/06/03 11:01:00;;;;;;;9.50;4.65;;;;;;;22.95;39.30;96679.16;4974792;28;19921;-76
2023/06/03 11:03:29;;;;;;;7.32;4.88;;;;;;;22.89;39.35;96685.50;4975124;28;20458;-76
2023/06/03 11:06:30;;;;;;;9.25;4.63;;;;;;;22.90;39.56;96681.78;4974459;28;20494;-76
2023/06/03 11:09:02;;;;;;;8.30;4.25;;;;;;;23.00;39.64;96681.88;4974476;28;20051;-76
2023/06/03 11:12:05;;;;;;;6.82;4.38;;;;;;;23.04;39.26;96682.16;4974879;28;20141;-76
2023/06/03 11:14:51;;;;;;;;;;;;;;;23.06;39.67;96684.56;4975029;28;20439;-76
2023/06/03 11:17:19;;;;;;;5.70;4.63;;;;;;;23.03;39.20;96683.22;4974696;28;19925;-76
2023/06/03 11:19:49;;;;;;;7.05;4.45;;;;;;;23.04;39.07;96685.59;4974509;28;20102;-76
2023/06/03 11:22:42;;;;;;;7.13;4.40;;;;;;;23.10;39.30;96678.47;4974434;28;20510;-76
2023/06/03 11:25:28;;;;;;;5.20;4.32;;;;;;;23.20;38.86;96675.06;4974431;28;20058;-76
2023/06/03 11:28:35;;;;;;;9.15;5.13;;;;;;;23.23;38.55;96671.84;4974364;28;20051;-76
2023/06/03 11:31:05;;;;;;;5.97;4.13;;;;;;;23.21;38.62;96674.78;4974176;28;20582;-76
2023/06/03 11:33:33;;;;;;;11.68;4.75;;;;;;;23.23;38.31;96675.31;4973931;28;20047;-76
2023/06/03 11:36:39;;;;;;;8.98;4.72;;;;;;;23.28;38.18;96671.88;4973920;28;20042;-76
2023/06/03 11:39:07;;;;;;;7.57;4.50;;;;;;;23.29;38.18;96678.81;4974022;28;20503;-76
2023/06/03 11:42:06;;;;;;;7.20;4.20;;;;;;;23.29;37.40;96676.13;4974563;28;20134;-76
2023/06/03 11:44:34;;;;;;;9.73;5.05;;;;;;;23.33;37.48;96673.75;4974095;28;20062;-76
2023/06/03 11:47:04;;;;;;;7.22;4.38;;;;;;;23.39;36.76;96672.69;4973791;28;20070;-76